Time;durP1;ratioP1;P1;durP2;ratioP2;P2;SDS_P1;SDS_P2;PMS_P1;PMS_P2;Temp;Humidity;BMP_temperature;BMP_pressure;BME280_temperature;BME280_humidity;BME280_pressure;Samples;Min_cycle;Max_cycle;Signal;HPM_P1;HPM_P2
2021/05/08 00:01:10;;;;;;;6.43;2.33;;;;;;;4.39;73.70;100910.69;5117189;28;20173;-73
2021/05/08 00:03:35;;;;;;;6.47;1.93;;;;;;;4.38;74.01;100906.31;5116249;28;20307;-72
2021/05/08 00:06:02;;;;;;;4.37;1.80;;;;;;;4.36;73.65;100903.72;5117002;28;20190;-71
2021/05/08 00:08:28;;;;;;;6.03;1.87;;;;;;;4.32;74.17;100901.22;5116793;28;20174;-71
2021/05/08 00:10:53;;;;;;;9.20;2.27;;;;;;;4.34;74.71;100910.81;5118323;28;20173;-72
2021/05/08 00:13:19;;;;;;;5.70;2.27;;;;;;;4.40;74.41;100912.44;5116703;28;20173;-70
2021/05/08 00:15:44;;;;;;;7.67;2.27;;;;;;;4.34;74.73;100909.97;5116153;28;25078;-71
2021/05/08 00:18:10;;;;;;;3.90;2.07;;;;;;;4.29;75.12;100910.09;5097719;28;25119;-70
2021/05/08 00:20:35;;;;;;;8.17;2.47;;;;;;;4.28;75.12;100923.34;5115975;28;25085;-70
2021/05/08 00:23:01;;;;;;;5.43;2.20;;;;;;;4.25;75.18;100921.63;5116286;28;20268;-71
2021/05/08 00:25:26;;;;;;;5.40;2.00;;;;;;;4.30;75.09;100909.19;5097465;28;25127;-71
2021/05/08 00:27:51;;;;;;;13.00;2.40;;;;;;;4.28;75.49;100911.00;5115836;28;25132;-72
2021/05/08 00:30:17;;;;;;;5.23;2.27;;;;;;;4.34;75.40;100902.03;5115670;28;25115;-72
2021/05/08 00:32:43;;;;;;;8.77;1.93;;;;;;;4.26;75.36;100919.88;5114303;28;25071;-71
2021/05/08 00:35:08;;;;;;;8.53;2.77;;;;;;;4.26;75.76;100910.16;5116084;28;20787;-71
2021/05/08 00:37:34;;;;;;;10.70;3.17;;;;;;;4.25;75.17;100919.00;5115889;28;25056;-72
2021/05/08 00:39:59;;;;;;;6.80;2.47;;;;;;;4.23;75.68;100925.22;5097395;28;25102;-72
2021/05/08 00:42:24;;;;;;;11.97;2.10;;;;;;;4.22;75.68;100919.06;5115117;28;25085;-74
2021/05/08 00:44:50;;;;;;;9.13;1.97;;;;;;;4.21;75.54;100909.41;5116441;28;20538;-72
2021/05/08 00:47:15;;;;;;;12.30;2.67;;;;;;;4.24;75.94;100916.41;5116505;28;20246;-72
2021/05/08 00:49:41;;;;;;;9.57;2.90;;;;;;;4.21;75.74;100919.13;5116727;28;25110;-72
2021/05/08 00:52:07;;;;;;;13.93;2.63;;;;;;;4.22;75.37;100912.94;5098746;28;25068;-72
2021/05/08 00:54:33;;;;;;;5.83;1.73;;;;;;;4.24;75.75;100913.75;5116606;28;25146;-71
2021/05/08 00:56:59;;;;;;;13.27;2.57;;;;;;;4.23;75.85;100922.59;5115464;28;25065;-71
2021/05/08 00:59:24;;;;;;;13.77;2.20;;;;;;;4.26;75.37;100910.16;5097615;28;25124;-72
2021/05/08 01:01:50;;;;;;;10.63;2.20;;;;;;;4.21;75.92;100912.06;5115780;28;25153;-71
2021/05/08 01:04:15;;;;;;;10.33;2.67;;;;;;;4.15;76.58;100914.00;5116504;28;25149;-72
2021/05/08 01:06:41;;;;;;;12.97;2.40;;;;;;;4.13;76.63;100921.09;5098070;28;25067;-72
2021/05/08 01:09:07;;;;;;;11.90;2.80;;;;;;;4.15;76.85;100912.22;5097277;28;25074;-72
2021/05/08 01:11:33;;;;;;;11.83;3.47;;;;;;;4.15;76.54;100906.94;5115093;28;20672;-71
2021/05/08 01:13:58;;;;;;;17.07;2.67;;;;;;;4.16;76.54;100919.25;5115007;28;25097;-71
2021/05/08 01:16:23;;;;;;;10.97;2.77;;;;;;;4.18;76.49;100913.91;5097474;28;25072;-71
2021/05/08 01:18:51;;;;;;;17.93;2.60;;;;;;;4.18;76.89;100917.44;5114813;28;25261;-72
2021/05/08 01:21:19;;;;;;;14.67;2.50;;;;;;;4.23;76.36;100920.81;5096550;28;20176;-72
2021/05/08 01:23:46;;;;;;;12.27;2.67;;;;;;;4.18;76.25;100912.16;5115069;28;25083;-72
2021/05/08 01:26:11;;;;;;;13.50;2.80;;;;;;;4.12;76.72;100906.16;5115023;28;20198;-72
2021/05/08 01:28:37;;;;;;;10.07;2.80;;;;;;;4.04;76.80;100912.47;5114286;28;25060;-73
2021/05/08 01:31:02;;;;;;;12.23;2.80;;;;;;;4.04;77.22;100915.09;5114865;28;25108;-73
2021/05/08 01:33:27;;;;;;;10.23;2.50;;;;;;;4.03;77.17;100918.66;5096956;28;25049;-72
2021/05/08 01:35:54;;;;;;;11.50;3.23;;;;;;;4.05;77.06;100915.97;5114541;28;25098;-71
2021/05/08 01:38:19;;;;;;;13.47;3.07;;;;;;;4.02;76.91;100916.91;5114682;28;25089;-72
2021/05/08 01:40:45;;;;;;;7.80;2.70;;;;;;;3.99;77.03;100924.06;5096402;28;20173;-71
2021/05/08 01:43:10;;;;;;;12.37;2.77;;;;;;;3.98;77.40;100924.97;5116903;28;25101;-72
2021/05/08 01:45:35;;;;;;;6.03;2.67;;;;;;;3.95;77.33;100917.97;5120529;28;25054;-72
2021/05/08 01:48:04;;;;;;;8.97;2.40;;;;;;;3.94;77.52;100929.44;5121035;28;25112;-71
2021/05/08 01:50:29;;;;;;;7.70;2.73;;;;;;;3.91;77.25;100940.09;5102771;28;20200;-72
2021/05/08 01:52:54;;;;;;;9.70;2.83;;;;;;;3.90;77.69;100930.44;5121347;28;20185;-72
2021/05/08 01:55:24;;;;;;;11.17;3.00;;;;;;;3.81;78.12;100921.88;5120832;28;25071;-71
2021/05/08 01:57:52;;;;;;;10.90;3.53;;;;;;;3.84;77.92;100927.06;5102895;28;25133;-70
2021/05/08 02:00:21;;;;;;;14.10;3.47;;;;;;;3.84;77.97;100924.44;5121555;28;25074;-72
2021/05/08 02:02:47;;;;;;;13.10;3.30;;;;;;;3.80;77.74;100928.94;5106981;28;25048;-72
2021/05/08 02:05:13;;;;;;;11.53;2.73;;;;;;;3.80;78.08;100930.69;5124141;28;25113;-71
2021/05/08 02:07:39;;;;;;;7.50;2.60;;;;;;;3.75;78.17;100921.13;5086323;28;25158;-71
2021/05/08 02:10:09;;;;;;;11.10;2.70;;;;;;;3.75;78.12;100928.16;5122463;28;25114;-71
2021/05/08 02:12:37;;;;;;;12.77;2.67;;;;;;;3.74;78.19;100929.06;5121645;28;25134;-72
2021/05/08 02:15:06;;;;;;;10.93;2.80;;;;;;;3.68;78.16;100924.78;5121238;28;25120;-72
2021/05/08 02:17:31;;;;;;;10.80;3.03;;;;;;;3.65;78.29;100922.22;5102986;28;25173;-71
2021/05/08 02:19:56;;;;;;;6.77;2.67;;;;;;;3.70;78.44;100930.88;5120915;28;25075;-72
2021/05/08 02:22:22;;;;;;;7.43;2.53;;;;;;;3.62;78.54;100932.84;5103331;28;25071;-72
2021/05/08 02:24:47;;;;;;;9.50;3.33;;;;;;;3.61;78.72;100936.38;5121440;28;25107;-73
2021/05/08 02:27:12;;;;;;;7.10;2.77;;;;;;;3.60;78.44;100933.78;5122688;28;25066;-73
2021/05/08 02:29:37;;;;;;;14.10;3.00;;;;;;;3.59;78.29;100937.31;5121840;28;20686;-73
2021/05/08 02:32:07;;;;;;;10.83;2.73;;;;;;;3.56;78.87;100940.03;5102813;28;25079;-71
2021/05/08 02:34:32;;;;;;;11.10;2.97;;;;;;;3.57;78.99;100933.84;5120600;28;25047;-71
2021/05/08 02:36:57;;;;;;;18.63;2.77;;;;;;;3.55;78.71;100938.31;5121236;28;25063;-72
2021/05/08 02:39:23;;;;;;;11.50;3.00;;;;;;;3.48;79.28;100944.63;5121179;28;20164;-71
2021/05/08 02:41:48;;;;;;;14.23;2.73;;;;;;;3.43;79.52;100937.69;5121494;28;20184;-72
2021/05/08 02:44:13;;;;;;;11.80;2.77;;;;;;;3.41;79.59;100933.34;5121650;28;20179;-72
2021/05/08 02:46:39;;;;;;;9.97;2.87;;;;;;;3.39;79.29;100936.00;5121244;28;20557;-75
2021/05/08 02:49:04;;;;;;;13.00;2.80;;;;;;;3.37;79.62;100937.81;5121026;28;20200;-73
2021/05/08 02:51:29;;;;;;;7.60;2.57;;;;;;;3.38;79.70;100950.09;5121225;28;20221;-74
2021/05/08 02:53:54;;;;;;;5.33;2.57;;;;;;;3.33;79.60;100945.81;5121089;28;20170;-73
2021/05/08 02:56:20;;;;;;;8.97;2.87;;;;;;;3.31;79.95;100959.03;5116592;28;20195;-73
2021/05/08 02:58:45;;;;;;;13.07;3.00;;;;;;;3.31;79.95;100964.31;5117724;28;20535;-71
2021/05/08 03:01:11;;;;;;;9.47;3.10;;;;;;;3.33;79.69;100951.94;5117779;28;20176;-72
2021/05/08 03:03:37;;;;;;;15.17;2.87;;;;;;;3.35;79.70;100955.44;5099752;28;20249;-72
2021/05/08 03:06:02;;;;;;;14.40;3.20;;;;;;;3.33;79.96;100959.84;5099082;28;20649;-74
2021/05/08 03:08:27;;;;;;;11.03;3.07;;;;;;;3.29;79.68;100960.81;5117677;28;20702;-72
2021/05/08 03:10:52;;;;;;;8.17;2.33;;;;;;;3.26;79.66;100958.25;5117293;28;20219;-72
2021/05/08 03:13:18;;;;;;;13.57;3.63;;;;;;;3.25;79.99;100959.16;5118027;28;20566;-73
2021/05/08 03:15:44;;;;;;;8.13;2.93;;;;;;;3.22;80.06;100958.34;5117475;28;20548;-71
2021/05/08 03:20:45;;;;;;;12.33;2.80;;;;;;;3.16;80.29;100954.09;5388940;22;20234;-71
2021/05/08 03:23:10;;;;;;;9.27;3.13;;;;;;;3.14;79.99;100967.31;5036606;28;20241;-72
2021/05/08 03:25:36;;;;;;;7.63;2.70;;;;;;;3.20;80.13;100976.84;5035711;28;20210;-71
2021/05/08 03:28:01;;;;;;;11.73;2.77;;;;;;;3.19;79.61;100980.41;5036068;28;20183;-71
2021/05/08 03:30:26;;;;;;;12.93;3.20;;;;;;;3.26;79.36;100975.84;5036424;28;20266;-71
2021/05/08 03:32:52;;;;;;;11.97;3.07;;;;;;;3.23;79.76;100984.69;5049338;22;20802;-67
2021/05/08 03:35:17;;;;;;;7.97;2.63;;;;;;;3.24;79.59;100982.94;5035138;28;20558;-67
2021/05/08 03:37:42;;;;;;;5.23;2.20;;;;;;;3.15;79.99;100978.72;5035390;28;20220;-67
2021/05/08 03:40:08;;;;;;;9.93;3.30;;;;;;;3.17;79.86;100976.06;5033979;28;20184;-66
2021/05/08 03:42:33;;;;;;;9.13;2.93;;;;;;;3.21;79.38;100983.88;5034871;28;20198;-67
2021/05/08 03:44:58;;;;;;;12.57;2.43;;;;;;;3.23;79.51;100981.19;5034902;28;20181;-67
2021/05/08 03:47:24;;;;;;;8.47;2.87;;;;;;;3.27;79.38;100989.00;5033998;28;20175;-67
2021/05/08 03:49:49;;;;;;;11.30;2.77;;;;;;;3.27;79.51;100983.72;5035402;28;20206;-66
2021/05/08 03:52:14;;;;;;;7.10;2.73;;;;;;;3.34;78.92;100995.03;5034658;28;20206;-66
2021/05/08 03:54:40;;;;;;;8.60;2.50;;;;;;;3.38;79.13;100986.19;5035043;28;20182;-66
2021/05/08 03:57:05;;;;;;;14.27;3.00;;;;;;;3.39;79.03;101001.97;5034725;28;20183;-66
2021/05/08 03:59:31;;;;;;;9.10;3.17;;;;;;;3.34;78.60;100997.66;5035118;28;20176;-66
2021/05/08 04:01:56;;;;;;;15.07;2.93;;;;;;;3.35;78.76;100997.66;5034719;28;20704;-67
2021/05/08 04:04:21;;;;;;;9.87;2.83;;;;;;;3.41;78.24;101000.16;5034983;28;20250;-66
2021/05/08 04:06:47;;;;;;;9.70;2.83;;;;;;;3.42;78.34;100994.00;5034501;28;20190;-67
2021/05/08 04:09:12;;;;;;;14.70;3.07;;;;;;;3.47;78.44;101003.56;5033314;28;20583;-67
2021/05/08 04:11:37;;;;;;;6.70;2.43;;;;;;;3.52;78.36;101004.34;5033847;28;20179;-67
2021/05/08 04:14:04;;;;;;;9.37;2.57;;;;;;;3.55;78.32;100996.38;5016684;28;20207;-67
2021/05/08 04:16:31;;;;;;;10.53;2.93;;;;;;;3.53;78.41;101006.09;5033444;28;20632;-67
2021/05/08 04:18:56;;;;;;;10.10;2.30;;;;;;;3.63;77.81;101005.84;5033108;28;20182;-67
2021/05/08 04:21:22;;;;;;;13.50;3.40;;;;;;;3.64;77.49;101015.50;5033140;28;20184;-67
2021/05/08 04:23:47;;;;;;;6.73;2.37;;;;;;;3.65;77.72;101014.59;5033250;28;20199;-68
2021/05/08 04:26:12;;;;;;;13.70;2.50;;;;;;;3.74;77.24;101005.63;5034493;28;20179;-68
2021/05/08 04:28:38;;;;;;;6.90;2.80;;;;;;;3.79;77.47;101014.31;5034008;28;20203;-68
2021/05/08 04:31:03;;;;;;;8.07;3.13;;;;;;;3.82;77.31;101011.59;5034126;28;20177;-68
2021/05/08 04:33:28;;;;;;;10.57;3.10;;;;;;;3.85;77.11;101024.72;5033945;28;20211;-67
2021/05/08 04:35:53;;;;;;;15.63;5.20;;;;;;;3.93;77.02;101033.34;5034400;28;20234;-68
2021/05/08 04:38:19;;;;;;;11.97;3.23;;;;;;;4.02;76.67;101021.69;5033503;28;20647;-67
2021/05/08 04:40:44;;;;;;;10.03;4.90;;;;;;;4.04;77.00;101026.03;5034651;28;20173;-68
2021/05/08 04:43:09;;;;;;;9.43;3.00;;;;;;;4.06;76.54;101032.16;5032931;28;20207;-67
2021/05/08 04:45:35;;;;;;;8.63;2.27;;;;;;;4.07;77.06;101019.81;5034176;28;20175;-68
2021/05/08 04:48:00;;;;;;;12.83;3.63;;;;;;;4.16;76.71;101024.91;5033798;28;20706;-68
2021/05/08 04:50:26;;;;;;;9.77;2.70;;;;;;;4.23;75.87;101029.13;5032431;28;20299;-68
2021/05/08 04:52:52;;;;;;;8.03;2.90;;;;;;;4.32;76.21;101031.56;5033969;28;20210;-68
2021/05/08 04:55:18;;;;;;;11.67;3.03;;;;;;;4.31;76.10;101040.38;5032552;28;20607;-68
2021/05/08 04:57:43;;;;;;;10.83;3.57;;;;;;;4.33;76.08;101049.16;5033656;28;20179;-67
2021/05/08 05:00:13;;;;;;;9.40;3.53;;;;;;;4.43;76.46;101047.16;5032558;28;20560;-68
2021/05/08 05:02:41;;;;;;;9.83;3.63;;;;;;;4.43;75.71;101055.06;5032312;28;20278;-68
2021/05/08 05:05:07;;;;;;;10.03;3.23;;;;;;;4.57;75.79;101057.41;5033526;28;20180;-68
2021/05/08 05:07:32;;;;;;;10.23;3.17;;;;;;;4.67;75.02;101046.53;5033445;28;20230;-68
2021/05/08 05:09:57;;;;;;;8.40;2.40;;;;;;;4.74;74.66;101063.13;5033426;28;20663;-67
2021/05/08 05:12:23;;;;;;;10.17;2.70;;;;;;;4.72;74.96;101057.88;5033405;28;20202;-67
2021/05/08 05:14:48;;;;;;;5.97;2.43;;;;;;;4.82;74.48;101073.50;5032379;28;20180;-68
2021/05/08 05:17:13;;;;;;;10.40;3.50;;;;;;;4.85;74.51;101073.44;5033380;28;20188;-68
2021/05/08 05:19:39;;;;;;;10.00;2.97;;;;;;;4.91;74.80;101078.56;5033366;28;20193;-68
2021/05/08 05:22:04;;;;;;;7.77;3.33;;;;;;;4.99;74.22;101073.94;5031845;28;20606;-68
2021/05/08 05:24:29;;;;;;;9.47;3.23;;;;;;;5.04;74.35;101077.34;5032511;28;20176;-68
2021/05/08 05:26:54;;;;;;;10.67;3.30;;;;;;;5.06;73.80;101075.53;5033475;28;20179;-68
2021/05/08 05:29:20;;;;;;;10.73;3.20;;;;;;;5.18;74.07;101075.19;5033254;28;20196;-68
2021/05/08 05:31:45;;;;;;;8.60;3.00;;;;;;;5.19;74.27;101071.63;5033432;28;20181;-67
2021/05/08 05:34:10;;;;;;;8.83;2.67;;;;;;;5.28;74.35;101070.53;5033390;28;20231;-67
2021/05/08 05:36:35;;;;;;;9.37;3.80;;;;;;;5.39;73.72;101075.53;5033131;28;20267;-67
2021/05/08 05:39:01;;;;;;;17.07;5.63;;;;;;;5.47;73.11;101100.00;5033100;28;20540;-67
2021/05/08 05:41:26;;;;;;;11.50;3.30;;;;;;;5.55;73.01;101079.47;5033197;28;20213;-67
2021/05/08 05:43:52;;;;;;;11.33;2.87;;;;;;;5.59;73.37;101074.06;5032029;28;20277;-67
2021/05/08 05:46:17;;;;;;;12.90;3.00;;;;;;;5.66;72.70;101064.16;5033188;28;20173;-68
2021/05/08 05:48:42;;;;;;;10.60;3.13;;;;;;;5.69;72.50;101068.50;5031738;28;20304;-68
2021/05/08 05:51:08;;;;;;;12.47;3.63;;;;;;;5.79;71.91;101069.97;5031848;28;20176;-68
2021/05/08 05:53:34;;;;;;;7.83;3.40;;;;;;;5.88;72.32;101067.91;5033353;28;20709;-68
2021/05/08 05:55:59;;;;;;;10.93;2.53;;;;;;;6.04;70.18;101067.50;5031932;28;20176;-67
2021/05/08 05:58:25;;;;;;;17.30;5.37;;;;;;;5.91;70.72;101088.16;5033633;28;20187;-67
2021/05/08 06:00:50;;;;;;;12.83;2.83;;;;;;;6.06;69.47;101081.56;5031894;28;20172;-67
2021/05/08 06:03:15;;;;;;;9.50;2.83;;;;;;;6.13;70.01;101083.09;5032784;28;20243;-67
2021/05/08 06:05:40;;;;;;;12.50;3.23;;;;;;;6.16;69.23;101086.53;5031665;28;20236;-68
2021/05/08 06:08:10;;;;;;;8.97;2.53;;;;;;;6.28;68.62;101085.25;5032900;28;20210;-68
2021/05/08 06:10:35;;;;;;;8.13;2.67;;;;;;;6.26;69.25;101077.38;5032927;28;20209;-68
2021/05/08 06:13:00;;;;;;;10.37;2.80;;;;;;;6.38;69.08;101086.72;5032749;28;20676;-67
2021/05/08 06:15:25;;;;;;;11.43;2.83;;;;;;;6.39;69.40;101088.47;5032988;28;20176;-67
2021/05/08 06:17:51;;;;;;;14.57;4.43;;;;;;;6.46;69.38;101083.84;5031552;28;20226;-67
2021/05/08 06:20:16;;;;;;;8.87;2.20;;;;;;;6.57;69.01;101084.34;5032871;28;20640;-67
2021/05/08 06:22:41;;;;;;;12.10;3.10;;;;;;;6.65;68.84;101095.56;5033098;28;20196;-68
2021/05/08 06:25:07;;;;;;;7.60;3.50;;;;;;;6.84;67.98;101098.50;5032991;28;20183;-67
2021/05/08 06:27:32;;;;;;;16.00;3.90;;;;;;;6.88;65.80;101092.16;5032616;28;20630;-67
2021/05/08 06:29:58;;;;;;;9.93;2.80;;;;;;;6.89;66.46;101093.91;5033720;28;20756;-67
2021/05/08 06:32:23;;;;;;;7.93;2.67;;;;;;;6.95;66.01;101088.38;5036594;28;20215;-67
2021/05/08 06:34:49;;;;;;;12.73;2.73;;;;;;;7.03;64.71;101096.94;5036682;28;20169;-66
2021/05/08 06:37:14;;;;;;;13.17;2.77;;;;;;;7.09;64.19;101096.75;5036232;28;20175;-67
2021/05/08 06:39:40;;;;;;;9.97;2.80;;;;;;;7.04;63.66;101097.81;5036627;28;20540;-66
2021/05/08 06:42:05;;;;;;;7.50;2.20;;;;;;;6.93;64.26;101100.84;5036523;28;20193;-66
2021/05/08 06:44:30;;;;;;;6.13;2.40;;;;;;;6.85;64.06;101102.88;5036574;28;20547;-68
2021/05/08 06:46:56;;;;;;;9.10;3.20;;;;;;;7.05;64.48;101108.38;5036272;28;20175;-67
2021/05/08 06:49:22;;;;;;;11.73;2.87;;;;;;;7.20;64.21;101112.31;5034943;28;20196;-67
2021/05/08 06:51:47;;;;;;;9.03;2.23;;;;;;;7.30;61.81;101102.22;5035360;28;20182;-66
2021/05/08 06:54:12;;;;;;;9.70;2.30;;;;;;;7.37;63.04;101127.66;5036062;28;20179;-66
2021/05/08 06:56:38;;;;;;;12.27;3.27;;;;;;;7.50;62.87;101137.81;5035140;28;20251;-67
2021/05/08 06:59:04;;;;;;;7.77;2.57;;;;;;;7.68;63.15;101116.81;5037043;28;20525;-67
2021/05/08 07:01:29;;;;;;;9.30;2.40;;;;;;;7.79;62.65;101126.09;5036610;28;20185;-68
2021/05/08 07:03:56;;;;;;;9.10;2.20;;;;;;;7.88;62.12;101121.41;5035971;28;20694;-68
2021/05/08 07:06:22;;;;;;;9.43;2.00;;;;;;;7.47;60.33;101124.63;5035970;28;20210;-68
2021/05/08 07:08:48;;;;;;;10.40;2.23;;;;;;;7.82;60.02;101131.34;5034774;28;20706;-68
2021/05/08 07:11:13;;;;;;;8.40;2.70;;;;;;;7.70;60.22;101121.13;5035869;28;20176;-67
2021/05/08 07:13:38;;;;;;;9.60;4.33;;;;;;;8.03;59.76;101124.34;5034576;28;20206;-67
2021/05/08 07:16:04;;;;;;;10.83;2.17;;;;;;;7.98;60.30;101138.72;5034464;28;20202;-67
2021/05/08 07:18:29;;;;;;;11.53;4.10;;;;;;;8.10;60.17;101128.50;5035458;28;20181;-67
2021/05/08 07:20:54;;;;;;;16.97;3.90;;;;;;;8.36;59.17;101134.66;5017604;28;20184;-67
2021/05/08 07:23:20;;;;;;;9.00;2.10;;;;;;;8.42;59.72;101116.66;5035723;28;20725;-68
2021/05/08 07:25:45;;;;;;;5.27;2.27;;;;;;;8.36;58.79;101131.97;5034460;28;20555;-68
2021/05/08 07:28:13;;;;;;;8.77;2.00;;;;;;;8.49;58.41;101132.34;5035242;28;20652;-69
2021/05/08 07:30:39;;;;;;;9.60;3.03;;;;;;;8.57;57.64;101130.28;5034668;28;20196;-67
2021/05/08 07:33:05;;;;;;;10.67;2.10;;;;;;;8.59;57.66;101153.25;5034273;28;20590;-68
2021/05/08 07:35:30;;;;;;;9.27;2.30;;;;;;;8.61;57.02;101130.09;5034987;28;20179;-68
2021/05/08 07:37:56;;;;;;;9.27;2.13;;;;;;;8.42;57.61;101135.25;5036164;28;20241;-67
2021/05/08 07:40:21;;;;;;;9.17;2.03;;;;;;;8.68;56.60;101134.25;5034185;28;20640;-68
2021/05/08 07:42:47;;;;;;;9.40;2.43;;;;;;;8.74;56.95;101128.66;5034038;28;20199;-68
2021/05/08 07:45:12;;;;;;;9.37;2.53;;;;;;;8.72;56.87;101135.84;5035675;28;20261;-68
2021/05/08 07:47:39;;;;;;;8.70;2.23;;;;;;;8.42;57.64;101142.38;5034104;28;20187;-68
2021/05/08 07:50:05;;;;;;;10.23;2.63;;;;;;;8.63;57.25;101146.00;5035106;28;20545;-68
2021/05/08 07:52:30;;;;;;;10.97;2.70;;;;;;;8.75;56.51;101138.38;5017558;28;20207;-68
2021/05/08 07:54:55;;;;;;;14.03;2.80;;;;;;;8.85;56.33;101148.66;5035296;28;20180;-68
2021/05/08 07:57:21;;;;;;;10.70;3.83;;;;;;;8.87;55.85;101150.31;5034970;28;20609;-68
2021/05/08 07:59:46;;;;;;;10.57;3.27;;;;;;;8.99;55.90;101148.97;5033574;28;20709;-68
2021/05/08 08:02:13;;;;;;;10.93;4.17;;;;;;;8.90;54.96;101152.84;5035292;28;20276;-67
2021/05/08 08:04:38;;;;;;;8.57;2.17;;;;;;;9.12;52.98;101159.97;5034955;28;20259;-67
2021/05/08 08:07:03;;;;;;;7.83;1.87;;;;;;;9.14;53.83;101156.31;5035115;28;20678;-67
2021/05/08 08:09:28;;;;;;;6.33;2.00;;;;;;;8.99;54.53;101148.97;5017684;28;20204;-67
2021/05/08 08:11:54;;;;;;;9.17;1.83;;;;;;;8.61;55.45;101142.53;5034900;28;20206;-68
2021/05/08 08:14:19;;;;;;;5.57;1.90;;;;;;;8.55;55.33;101153.41;5035143;28;20665;-67
2021/05/08 08:16:45;;;;;;;12.97;3.67;;;;;;;8.82;54.96;101165.59;5034616;28;20177;-68
2021/05/08 08:19:10;;;;;;;7.43;2.53;;;;;;;9.27;54.22;101161.97;5034623;28;20241;-67
2021/05/08 08:21:36;;;;;;;8.97;1.63;;;;;;;9.58;52.81;101175.72;5034552;28;20199;-67
2021/05/08 08:24:01;;;;;;;6.53;2.60;;;;;;;9.63;52.46;101167.53;5034448;28;20607;-68
2021/05/08 08:26:26;;;;;;;5.83;2.10;;;;;;;9.64;51.73;101166.59;5033415;28;20544;-67
2021/05/08 08:28:51;;;;;;;6.37;1.90;;;;;;;9.49;51.77;101175.25;5033292;28;20180;-67
2021/05/08 08:31:17;;;;;;;9.20;2.20;;;;;;;9.35;53.02;101168.72;5035183;28;20176;-68
2021/05/08 08:33:42;;;;;;;11.33;2.43;;;;;;;9.35;53.79;101173.19;5034401;28;20691;-68
2021/05/08 08:36:07;;;;;;;6.73;2.03;;;;;;;9.32;53.95;101165.34;5034266;28;20199;-68
2021/05/08 08:38:33;;;;;;;6.90;2.00;;;;;;;9.71;52.08;101176.06;5034266;28;20179;-68
2021/05/08 08:40:58;;;;;;;7.93;2.10;;;;;;;9.92;52.00;101179.56;5032664;28;20226;-68
2021/05/08 08:43:24;;;;;;;8.47;3.23;;;;;;;9.83;52.06;101177.31;5034277;28;20262;-68
2021/05/08 08:45:49;;;;;;;7.17;1.87;;;;;;;9.99;51.73;101181.03;5032823;28;20180;-68
2021/05/08 08:48:14;;;;;;;7.97;2.10;;;;;;;10.08;50.42;101171.78;5034237;28;20601;-68
2021/05/08 08:50:40;;;;;;;5.23;1.80;;;;;;;10.18;49.50;101181.06;5034469;28;20196;-68
2021/05/08 08:53:05;;;;;;;8.67;1.90;;;;;;;9.79;51.24;101178.41;5033129;28;20195;-69
2021/05/08 08:55:35;;;;;;;4.63;1.77;;;;;;;10.27;49.88;101176.22;5033130;28;20176;-68
2021/05/08 08:58:04;;;;;;;9.73;2.30;;;;;;;10.18;50.21;101181.06;5032743;28;20172;-68
2021/05/08 09:00:29;;;;;;;6.53;1.80;;;;;;;9.88;50.11;101175.31;5033968;28;20168;-67
2021/05/08 09:02:55;;;;;;;5.50;2.20;;;;;;;9.98;50.18;101187.28;5032275;28;20196;-67
2021/05/08 09:05:23;;;;;;;7.50;2.30;;;;;;;10.10;50.10;101175.22;5032485;28;20229;-67
2021/05/08 09:07:50;;;;;;;8.10;1.73;;;;;;;9.92;50.67;101166.25;5032454;28;20184;-67
2021/05/08 09:10:22;;;;;;;7.10;1.57;;;;;;;9.89;50.55;101183.25;5032435;28;20675;-67
2021/05/08 09:12:48;;;;;;;8.00;1.90;;;;;;;10.03;50.02;101175.50;5032517;28;20207;-67
2021/05/08 09:15:13;;;;;;;9.30;1.83;;;;;;;10.03;50.32;101177.28;5015782;28;20314;-67
2021/05/08 09:17:43;;;;;;;7.30;1.60;;;;;;;9.91;50.66;101172.50;5033774;28;20259;-67
2021/05/08 09:20:10;;;;;;;9.53;2.03;;;;;;;9.76;51.85;101170.53;5015695;28;20259;-68
2021/05/08 09:22:37;;;;;;;7.63;1.67;;;;;;;9.20;51.66;101173.81;5032398;28;20192;-68
2021/05/08 09:25:06;;;;;;;4.73;1.90;;;;;;;9.51;51.02;101166.25;5034027;28;20176;-68
2021/05/08 09:27:40;;;;;;;6.13;1.47;;;;;;;9.96;50.31;101160.69;5032021;28;20188;-68
2021/05/08 09:30:15;;;;;;;4.53;2.20;;;;;;;10.22;48.99;101172.03;5032397;28;20607;-68
2021/05/08 09:32:41;;;;;;;7.17;2.60;;;;;;;10.44;48.77;101161.22;5056239;22;20226;-72
2021/05/08 09:35:12;;;;;;;5.50;1.63;;;;;;;10.58;47.69;101170.31;5034690;28;20177;-71
2021/05/08 09:37:38;;;;;;;5.80;1.70;;;;;;;10.49;48.89;101160.06;5033355;28;20168;-70
2021/05/08 09:40:23;;;;;;;6.47;1.30;;;;;;;10.26;48.79;101174.47;5034675;28;20168;-71
2021/05/08 09:42:54;;;;;;;4.90;1.60;;;;;;;10.81;47.99;101163.88;5033730;28;20215;-70
2021/05/08 09:45:22;;;;;;;4.53;1.97;;;;;;;11.30;47.14;101166.78;5016212;28;20667;-70
2021/05/08 09:47:47;;;;;;;4.97;1.47;;;;;;;11.62;43.42;101164.28;5032482;28;20183;-71
2021/05/08 09:50:13;;;;;;;7.67;2.57;;;;;;;11.92;44.52;101169.84;5033641;28;20659;-71
2021/05/08 09:52:52;;;;;;;6.43;1.60;;;;;;;12.07;42.95;101151.16;5033809;28;20200;-71
2021/05/08 09:55:20;;;;;;;4.37;1.70;;;;;;;11.81;43.84;101149.00;5032523;28;20180;-71
2021/05/08 09:57:56;;;;;;;11.33;2.73;;;;;;;11.54;44.84;101143.28;5015693;28;20176;-70
2021/05/08 10:00:32;;;;;;;4.40;1.60;;;;;;;11.06;42.89;101158.19;5015449;28;20172;-71
2021/05/08 10:03:11;;;;;;;3.50;1.73;;;;;;;11.16;43.10;101158.59;5033719;28;20544;-71
2021/05/08 10:05:38;;;;;;;4.60;1.80;;;;;;;11.52;43.75;101142.47;5037001;28;20160;-71
2021/05/08 10:08:04;;;;;;;7.87;2.40;;;;;;;11.89;43.07;101162.84;5037671;28;20576;-70
2021/05/08 10:10:30;;;;;;;5.07;1.83;;;;;;;11.93;42.96;101148.38;5036807;28;20318;-70
2021/05/08 10:12:56;;;;;;;4.70;1.93;;;;;;;11.94;43.23;101150.09;5036407;28;20262;-71
2021/05/08 10:15:22;;;;;;;8.70;1.80;;;;;;;12.05;42.02;101139.69;5036305;28;20173;-70
2021/05/08 10:17:49;;;;;;;3.23;1.43;;;;;;;12.01;42.32;101153.31;5036337;28;20667;-71
2021/05/08 10:20:17;;;;;;;4.40;1.90;;;;;;;11.75;43.11;101160.00;5038052;28;20591;-70
2021/05/08 10:22:53;;;;;;;4.27;1.70;;;;;;;11.49;44.54;101154.19;5036198;28;20283;-71
2021/05/08 10:25:19;;;;;;;7.23;1.63;;;;;;;10.79;46.55;101148.88;5036563;28;20156;-71
2021/05/08 10:27:44;;;;;;;8.33;1.90;;;;;;;11.88;44.54;101143.25;5035901;28;20179;-70
2021/05/08 10:30:12;;;;;;;5.50;1.70;;;;;;;12.52;42.40;101146.91;5018971;28;20196;-71
2021/05/08 10:32:39;;;;;;;3.70;1.80;;;;;;;13.32;40.11;101144.06;5035207;28;20241;-71
2021/05/08 10:35:05;;;;;;;4.03;1.50;;;;;;;13.37;38.74;101144.66;5019452;28;20226;-71
2021/05/08 10:37:31;;;;;;;4.17;1.43;;;;;;;12.87;39.17;101146.72;5035932;28;20168;-70
2021/05/08 10:40:04;;;;;;;4.93;1.60;;;;;;;12.44;40.38;101143.78;5037388;28;20608;-71
2021/05/08 10:42:29;;;;;;;4.67;1.83;;;;;;;12.38;39.94;101146.81;5037034;28;20192;-71
2021/05/08 10:44:54;;;;;;;5.17;2.07;;;;;;;12.36;41.70;101143.38;5036788;28;20179;-70
2021/05/08 10:47:19;;;;;;;6.00;1.57;;;;;;;12.33;42.02;101135.50;5035561;28;20546;-72
2021/05/08 10:50:23;;;;;;;7.37;1.97;;;;;;;12.05;44.23;101142.34;5035956;28;20251;-71
2021/05/08 10:53:09;;;;;;;6.70;1.87;;;;;;;11.47;44.20;101140.03;5037938;28;20640;-71
2021/05/08 10:55:45;;;;;;;5.03;1.63;;;;;;;11.62;44.09;101142.88;5036421;28;20271;-71
2021/05/08 10:58:13;;;;;;;6.50;2.10;;;;;;;12.42;41.93;101135.84;5037077;28;20254;-71
2021/05/08 11:00:57;;;;;;;5.53;2.27;;;;;;;12.60;41.92;101139.28;5037539;28;20172;-72
2021/05/08 11:03:25;;;;;;;8.27;2.70;;;;;;;12.91;42.04;101137.56;5020076;28;20559;-70
2021/05/08 11:06:04;;;;;;;4.30;2.00;;;;;;;12.99;40.62;101140.63;5036849;28;20184;-70
2021/05/08 11:08:29;;;;;;;6.00;2.07;;;;;;;12.66;41.14;101136.28;5036656;28;20183;-71
2021/05/08 11:10:59;;;;;;;6.23;2.10;;;;;;;12.45;41.34;101132.13;5036646;28;20660;-70
2021/05/08 11:13:26;;;;;;;5.13;1.50;;;;;;;12.46;40.85;101129.38;5036360;28;20275;-70
2021/05/08 11:16:03;;;;;;;5.57;1.57;;;;;;;12.50;40.47;101119.34;5034146;28;20179;-71
2021/05/08 11:21:02;;;;;;;15.73;9.13;;;;;;;15.90;33.29;101135.41;5036875;28;20204;-73
2021/05/08 11:23:48;;;;;;;8.87;3.70;;;;;;;14.49;34.96;101121.63;5036393;28;20267;-71
2021/05/08 11:26:26;;;;;;;15.87;6.37;;;;;;;14.48;36.08;101123.47;5036733;28;20160;-71
2021/05/08 11:29:21;;;;;;;4.83;1.47;;;;;;;15.61;33.97;101124.00;5036358;28;20686;-70
2021/05/08 11:32:04;;;;;;;5.37;1.90;;;;;;;16.29;32.71;101115.53;5035304;28;20608;-71